createdAt,value
2019-05-29T00:01:39.462Z,8.73
2019-05-29T00:04:08.064Z,8.65
2019-05-29T00:06:35.984Z,8.72
2019-05-29T00:09:06.016Z,8.69
2019-05-29T00:11:35.528Z,8.79
2019-05-29T00:14:18.853Z,8.65
2019-05-29T00:16:34.012Z,8.70
2019-05-29T00:19:01.467Z,8.81
2019-05-29T00:21:29.250Z,8.78
2019-05-29T00:23:56.700Z,8.72
2019-05-29T00:37:06.274Z,8.32
2019-05-29T00:39:34.021Z,8.31
2019-05-29T00:42:01.868Z,8.29
2019-05-29T00:44:34.417Z,8.25
2019-05-29T00:46:57.798Z,7.91
2019-05-29T00:49:25.251Z,7.68
2019-05-29T00:51:52.301Z,7.60
2019-05-29T00:54:20.097Z,7.44
2019-05-29T00:56:47.429Z,7.32
2019-05-29T00:59:15.118Z,7.40
2019-05-29T01:01:43.783Z,7.45
2019-05-29T01:04:11.616Z,7.46
2019-05-29T01:06:39.923Z,7.53
2019-05-29T01:09:07.818Z,7.58
2019-05-29T01:11:36.144Z,7.55
2019-05-29T01:14:03.720Z,7.56
2019-05-29T01:16:31.185Z,7.54
2019-05-29T01:19:18.099Z,7.46
2019-05-29T01:21:45.892Z,7.48
2019-05-29T01:24:14.200Z,7.51
2019-05-29T01:26:41.253Z,7.53
2019-05-29T01:29:08.651Z,7.36
2019-05-29T01:31:36.281Z,7.25
2019-05-29T01:34:03.316Z,7.06
2019-05-29T01:36:30.762Z,7.03
2019-05-29T01:38:58.495Z,7.15
2019-05-29T01:41:25.560Z,7.19
2019-05-29T01:43:52.537Z,7.25
2019-05-29T01:46:19.982Z,7.07
2019-05-29T01:48:47.578Z,7.15
2019-05-29T01:51:15.518Z,7.07
2019-05-29T01:53:43.588Z,7.07
2019-05-29T01:56:11.995Z,7.09
2019-05-29T01:58:39.929Z,7.19
2019-05-29T02:01:10.212Z,7.04
2019-05-29T02:03:39.282Z,6.96
2019-05-29T02:06:08.578Z,6.93
2019-05-29T02:08:36.828Z,6.82
2019-05-29T02:11:06.181Z,6.89
2019-05-29T02:13:34.510Z,6.88
2019-05-29T02:16:03.112Z,6.96
2019-05-29T02:18:31.286Z,6.71
2019-05-29T02:21:00.995Z,6.52
2019-05-29T02:23:28.971Z,6.63
2019-05-29T02:25:57.086Z,6.51
2019-05-29T02:28:24.625Z,6.68
2019-05-29T02:30:52.804Z,6.19
2019-05-29T02:33:22.034Z,6.25
2019-05-29T02:35:50.455Z,6.37
2019-05-29T02:38:18.422Z,6.50
2019-05-29T02:40:46.915Z,6.15
2019-05-29T02:43:14.793Z,6.37
2019-05-29T02:45:53.823Z,6.40
2019-05-29T02:48:12.446Z,6.29
2019-05-29T02:50:39.750Z,6.34
2019-05-29T02:53:09.832Z,6.43
2019-05-29T02:55:37.811Z,6.35
2019-05-29T02:58:05.223Z,6.44
2019-05-29T03:00:51.777Z,6.36
2019-05-29T03:03:19.305Z,6.18
2019-05-29T03:05:46.515Z,6.29
2019-05-29T03:08:13.955Z,6.29
2019-05-29T03:10:42.145Z,6.25
2019-05-29T03:13:10.710Z,6.12
2019-05-29T03:15:37.796Z,6.12
2019-05-29T03:18:05.248Z,6.06
2019-05-29T03:20:34.546Z,5.92
2019-05-29T03:23:02.915Z,5.93
2019-05-29T03:25:30.679Z,5.99
2019-05-29T03:27:58.164Z,5.86
2019-05-29T03:30:27.877Z,5.88
2019-05-29T03:32:54.815Z,5.61
2019-05-29T03:35:22.436Z,5.78
2019-05-29T03:37:50.601Z,5.66
2019-05-29T03:40:17.997Z,5.62
2019-05-29T03:42:45.706Z,5.62
2019-05-29T03:45:13.172Z,5.64
2019-05-29T03:47:40.587Z,5.78
2019-05-29T03:50:08.380Z,5.75
2019-05-29T03:52:35.740Z,5.57
2019-05-29T03:55:03.139Z,5.59
2019-05-29T03:57:31.786Z,5.77
2019-05-29T04:00:00.342Z,5.75
2019-05-29T04:02:28.668Z,5.81
2019-05-29T04:04:56.138Z,5.79
2019-05-29T04:07:23.988Z,5.89
2019-05-29T04:09:51.301Z,5.98
2019-05-29T04:12:19.450Z,6.01
2019-05-29T04:14:48.068Z,6.05
2019-05-29T04:17:17.018Z,6.01
2019-05-29T04:19:44.765Z,6.03
2019-05-29T04:22:14.070Z,6.31
2019-05-29T04:24:41.232Z,6.40
2019-05-29T04:27:10.761Z,6.67
2019-05-29T04:29:39.611Z,6.88
2019-05-29T04:32:07.209Z,6.89
2019-05-29T04:34:35.861Z,7.17
2019-05-29T04:37:07.307Z,7.22
2019-05-29T04:39:34.461Z,7.45
2019-05-29T04:42:02.091Z,7.51
2019-05-29T04:44:30.772Z,7.63
2019-05-29T04:47:10.058Z,7.66
2019-05-29T04:49:29.305Z,7.81
2019-05-29T04:51:57.029Z,8.00
2019-05-29T04:54:24.492Z,8.19
2019-05-29T04:56:52.190Z,8.23
2019-05-29T04:59:19.196Z,8.35
2019-05-29T05:01:46.870Z,8.59
2019-05-29T05:04:13.837Z,8.71
2019-05-29T05:06:41.281Z,8.89
2019-05-29T05:09:08.263Z,8.98
2019-05-29T05:11:35.520Z,8.98
2019-05-29T05:14:03.039Z,8.92
2019-05-29T05:16:31.582Z,9.13
2019-05-29T05:18:59.587Z,9.21
2019-05-29T05:21:27.387Z,9.32
2019-05-29T05:23:55.743Z,9.29
2019-05-29T05:26:23.556Z,9.38
2019-05-29T05:28:50.587Z,9.41
2019-05-29T05:31:17.844Z,9.72
2019-05-29T05:33:45.192Z,9.86
2019-05-29T05:36:12.616Z,9.96
2019-05-29T05:38:41.108Z,9.84
2019-05-29T05:41:08.876Z,9.82
2019-05-29T05:43:36.903Z,10.06
2019-05-29T05:46:04.378Z,9.98
2019-05-29T05:48:32.933Z,10.06
2019-05-29T05:51:00.430Z,10.01
2019-05-29T05:53:27.788Z,10.22
2019-05-29T05:55:55.519Z,10.02
2019-05-29T05:58:22.958Z,10.25
2019-05-29T06:00:50.345Z,10.51
2019-05-29T06:03:18.127Z,10.46
2019-05-29T06:05:45.558Z,10.61
2019-05-29T06:08:13.439Z,10.44
2019-05-29T06:10:40.433Z,10.63
2019-05-29T06:13:07.487Z,10.68
2019-05-29T06:15:36.475Z,10.78
2019-05-29T06:18:19.823Z,10.81
2019-05-29T06:20:33.092Z,11.02
2019-05-29T06:23:00.164Z,11.01
2019-05-29T06:25:27.208Z,10.93
2019-05-29T06:27:54.596Z,10.95
2019-05-29T06:30:21.754Z,11.01
2019-05-29T06:32:49.160Z,10.68
2019-05-29T06:35:16.820Z,10.73
2019-05-29T06:37:44.693Z,11.02
2019-05-29T06:40:16.179Z,11.03
2019-05-29T06:42:44.015Z,11.07
2019-05-29T06:45:11.365Z,11.40
2019-05-29T06:47:38.772Z,11.40
2019-05-29T06:50:07.124Z,11.37
2019-05-29T06:52:35.368Z,11.58
2019-05-29T06:55:02.444Z,11.30
2019-05-29T06:57:30.812Z,11.29
2019-05-29T06:59:58.170Z,11.15
2019-05-29T07:02:25.842Z,11.47
2019-05-29T07:04:53.235Z,11.58
2019-05-29T07:07:21.004Z,11.48
2019-05-29T07:09:48.447Z,11.71
2019-05-29T07:12:15.885Z,11.67
2019-05-29T07:14:42.842Z,11.55
2019-05-29T07:17:10.196Z,11.51
2019-05-29T07:19:52.447Z,11.76
2019-05-29T07:22:06.486Z,11.68
2019-05-29T07:24:33.856Z,11.65
2019-05-29T07:27:03.387Z,11.77
2019-05-29T07:29:31.117Z,12.18
2019-05-29T07:31:59.993Z,12.18
2019-05-29T07:34:27.419Z,11.96
2019-05-29T07:36:55.725Z,11.98
2019-05-29T07:39:23.472Z,11.95
2019-05-29T07:41:50.718Z,12.00
2019-05-29T07:44:18.084Z,12.15
2019-05-29T07:46:46.957Z,12.14
2019-05-29T07:49:15.314Z,12.36
2019-05-29T07:51:43.383Z,12.35
2019-05-29T07:54:11.743Z,12.60
2019-05-29T07:56:40.373Z,12.70
2019-05-29T07:59:07.947Z,12.60
2019-05-29T08:01:35.635Z,12.66
2019-05-29T08:04:03.016Z,12.43
2019-05-29T08:06:31.229Z,12.55
2019-05-29T08:08:58.913Z,12.85
2019-05-29T08:11:26.262Z,12.79
2019-05-29T08:13:53.601Z,12.88
2019-05-29T08:16:21.605Z,12.94
2019-05-29T08:18:53.074Z,12.85
2019-05-29T08:21:18.716Z,13.18
2019-05-29T08:23:46.532Z,13.41
2019-05-29T08:26:14.250Z,13.28
2019-05-29T08:28:42.718Z,13.30
2019-05-29T08:31:10.363Z,13.32
2019-05-29T08:33:37.792Z,13.49
2019-05-29T08:36:05.154Z,13.46
2019-05-29T08:38:32.546Z,13.73
2019-05-29T08:40:59.888Z,13.67
2019-05-29T08:43:27.207Z,13.68
2019-05-29T08:45:54.592Z,13.56
2019-05-29T08:48:21.972Z,13.60
2019-05-29T08:50:50.008Z,13.40
2019-05-29T08:53:17.448Z,13.48
2019-05-29T08:55:44.767Z,13.39
2019-05-29T08:58:11.927Z,13.83
2019-05-29T09:00:39.545Z,13.93
2019-05-29T09:03:06.948Z,13.98
2019-05-29T09:05:34.043Z,14.14
2019-05-29T09:08:03.268Z,13.99
2019-05-29T09:10:30.591Z,13.97
2019-05-29T09:13:04.818Z,14.22
2019-05-29T09:15:27.273Z,14.80
2019-05-29T09:17:55.392Z,14.39
2019-05-29T09:20:37.133Z,14.36
2019-05-29T09:22:52.294Z,14.53
2019-05-29T09:25:21.057Z,14.75
2019-05-29T09:27:48.722Z,14.77
2019-05-29T09:30:17.120Z,14.45
2019-05-29T09:32:51.015Z,14.81
2019-05-29T09:35:16.058Z,14.94
2019-05-29T09:37:44.800Z,14.90
2019-05-29T09:40:19.183Z,15.25
2019-05-29T09:42:46.301Z,15.06
2019-05-29T09:45:14.977Z,14.95
2019-05-29T09:47:44.330Z,15.03
2019-05-29T09:50:12.404Z,15.55
2019-05-29T09:52:41.375Z,15.62
2019-05-29T09:55:08.897Z,15.32
2019-05-29T09:57:36.724Z,15.40
2019-05-29T10:00:04.682Z,15.47
2019-05-29T10:02:32.089Z,15.28
2019-05-29T10:05:00.709Z,15.71
2019-05-29T10:07:28.338Z,15.97
2019-05-29T10:09:56.970Z,15.77
2019-05-29T10:12:25.273Z,15.70
2019-05-29T10:14:54.205Z,15.17
2019-05-29T10:17:22.198Z,15.48
2019-05-29T10:19:49.585Z,15.84
2019-05-29T10:22:17.679Z,16.03
2019-05-29T10:24:45.049Z,15.72
2019-05-29T10:27:12.385Z,15.59
2019-05-29T10:29:39.838Z,16.37
2019-05-29T10:32:07.505Z,16.58
2019-05-29T10:34:35.211Z,16.80
2019-05-29T10:37:02.611Z,16.98
2019-05-29T10:39:30.410Z,16.37
2019-05-29T10:41:57.770Z,16.57
2019-05-29T10:44:25.612Z,16.75
2019-05-29T10:46:54.675Z,16.75
2019-05-29T10:49:22.388Z,16.90
2019-05-29T10:52:09.372Z,16.48
2019-05-29T10:54:19.061Z,17.05
2019-05-29T10:56:46.877Z,17.45
2019-05-29T10:59:14.729Z,17.63
2019-05-29T11:01:42.060Z,17.65
2019-05-29T11:04:09.135Z,17.42
2019-05-29T11:06:40.462Z,17.20
2019-05-29T11:09:06.229Z,17.18
2019-05-29T11:11:33.952Z,16.94
2019-05-29T11:14:02.641Z,16.96
2019-05-29T11:16:29.818Z,16.42
2019-05-29T11:18:57.992Z,16.12
2019-05-29T11:21:25.555Z,16.58
2019-05-29T11:23:53.876Z,17.13
2019-05-29T11:26:21.633Z,16.95
2019-05-29T11:28:50.230Z,17.15
2019-05-29T11:31:17.909Z,17.44
2019-05-29T11:33:45.995Z,17.73
2019-05-29T11:36:13.897Z,18.04
2019-05-29T11:38:41.144Z,17.56
2019-05-29T11:41:25.258Z,17.17
2019-05-29T11:43:58.972Z,16.87
2019-05-29T11:46:26.832Z,16.79
2019-05-29T11:48:55.270Z,16.90
2019-05-29T11:51:23.325Z,17.03
2019-05-29T11:53:51.468Z,16.92
2019-05-29T11:56:19.157Z,16.78
2019-05-29T11:58:46.166Z,16.68
2019-05-29T12:01:14.250Z,16.47
2019-05-29T12:04:05.430Z,17.54
2019-05-29T12:06:11.201Z,17.16
2019-05-29T12:08:38.285Z,17.36
2019-05-29T12:11:07.133Z,17.16
2019-05-29T12:13:34.820Z,17.49
2019-05-29T12:16:02.908Z,17.88
2019-05-29T12:18:30.660Z,18.59
2019-05-29T12:20:58.944Z,18.32
2019-05-29T12:23:27.431Z,18.13
2019-05-29T12:26:16.599Z,17.62
2019-05-29T12:28:39.633Z,17.89
2019-05-29T12:31:07.131Z,18.88
2019-05-29T12:33:34.896Z,18.41
2019-05-29T12:36:03.307Z,17.92
2019-05-29T12:38:31.950Z,17.86
2019-05-29T12:40:59.806Z,18.52
2019-05-29T12:43:28.285Z,19.21
2019-05-29T12:45:55.812Z,19.01
2019-05-29T12:48:22.859Z,18.38
2019-05-29T12:50:49.982Z,17.81
2019-05-29T12:53:29.481Z,17.80
2019-05-29T12:55:46.730Z,19.07
2019-05-29T12:58:13.798Z,19.84
2019-05-29T13:00:41.222Z,18.76
2019-05-29T13:03:09.793Z,18.60
2019-05-29T13:05:39.557Z,19.22
2019-05-29T13:08:06.744Z,19.91
2019-05-29T13:10:33.901Z,19.60
2019-05-29T13:13:08.434Z,19.31
2019-05-29T13:15:31.257Z,19.79
2019-05-29T13:18:05.350Z,19.27
2019-05-29T13:20:27.593Z,19.12
2019-05-29T13:22:55.522Z,19.22
2019-05-29T13:25:23.120Z,18.92
2019-05-29T13:27:50.920Z,19.29
2019-05-29T13:30:18.132Z,19.37
2019-05-29T13:32:46.235Z,19.25
2019-05-29T13:35:14.196Z,19.02
2019-05-29T13:37:41.242Z,18.76
2019-05-29T13:40:08.698Z,19.27
2019-05-29T13:42:36.079Z,19.93
2019-05-29T13:45:13.576Z,19.56
2019-05-29T13:47:33.235Z,19.24
2019-05-29T13:50:05.704Z,20.06
2019-05-29T13:52:29.906Z,21.07
2019-05-29T13:54:57.261Z,21.51
2019-05-29T13:57:24.811Z,21.22
2019-05-29T13:59:52.582Z,20.72
2019-05-29T14:02:19.723Z,21.77
2019-05-29T14:04:47.415Z,21.62
2019-05-29T14:07:14.793Z,21.51
2019-05-29T14:09:42.203Z,21.66
2019-05-29T14:12:10.378Z,20.70
2019-05-29T14:14:38.111Z,21.67
2019-05-29T14:17:06.623Z,22.23
2019-05-29T14:19:33.815Z,21.71
2019-05-29T14:22:01.223Z,21.95
2019-05-29T14:24:30.085Z,21.88
2019-05-29T14:26:57.458Z,21.37
2019-05-29T14:29:24.760Z,21.67
2019-05-29T14:31:52.370Z,22.77
2019-05-29T14:34:20.167Z,22.36
2019-05-29T14:36:47.602Z,22.24
2019-05-29T14:39:15.461Z,22.27
2019-05-29T14:41:42.827Z,21.44
2019-05-29T14:44:10.112Z,22.45
2019-05-29T14:46:38.266Z,21.67
2019-05-29T14:49:06.407Z,22.08
2019-05-29T14:51:34.210Z,22.38
2019-05-29T14:54:02.761Z,22.91
2019-05-29T14:56:30.092Z,22.21
2019-05-29T14:58:57.832Z,21.47
2019-05-29T15:01:26.274Z,20.79
2019-05-29T15:03:54.283Z,20.98
2019-05-29T15:06:22.451Z,20.45
2019-05-29T15:08:49.461Z,21.32
2019-05-29T15:11:17.594Z,21.41
2019-05-29T15:13:45.110Z,21.25
2019-05-29T15:16:12.859Z,20.38
2019-05-29T15:18:40.160Z,20.23
2019-05-29T15:21:07.589Z,20.85
2019-05-29T15:23:34.898Z,21.12
2019-05-29T15:26:02.694Z,21.68
2019-05-29T15:28:29.775Z,20.79
2019-05-29T15:30:57.504Z,20.89
2019-05-29T15:33:25.201Z,21.10
2019-05-29T15:35:53.031Z,21.39
2019-05-29T15:38:20.351Z,20.46
2019-05-29T15:40:47.427Z,20.16
2019-05-29T15:43:15.322Z,19.91
2019-05-29T15:45:43.114Z,19.62
2019-05-29T15:48:11.098Z,20.01
2019-05-29T15:50:38.615Z,20.31
2019-05-29T15:53:07.110Z,20.65
2019-05-29T15:55:35.119Z,21.35
2019-05-29T15:58:02.358Z,21.76
2019-05-29T16:00:30.483Z,21.66
2019-05-29T16:02:57.951Z,21.70
2019-05-29T16:05:24.920Z,21.76
2019-05-29T16:07:52.531Z,21.40
2019-05-29T16:10:20.995Z,20.93
2019-05-29T16:12:49.186Z,20.72
2019-05-29T16:15:17.558Z,20.30
2019-05-29T16:17:46.184Z,19.87
2019-05-29T16:20:14.448Z,20.21
2019-05-29T16:22:42.729Z,20.10
2019-05-29T16:25:12.792Z,19.87
2019-05-29T16:27:40.630Z,20.60
2019-05-29T16:30:08.667Z,20.71
2019-05-29T16:32:35.709Z,20.49
2019-05-29T16:35:03.452Z,20.61
2019-05-29T16:37:31.210Z,20.08
2019-05-29T16:39:58.995Z,19.73
2019-05-29T16:42:26.331Z,20.19
2019-05-29T16:44:54.435Z,20.27
2019-05-29T16:47:22.649Z,19.83
2019-05-29T16:49:53.249Z,20.31
2019-05-29T16:52:22.958Z,20.02
2019-05-29T16:54:51.274Z,20.19
2019-05-29T16:57:19.248Z,20.16
2019-05-29T16:59:46.544Z,20.15
2019-05-29T17:02:15.518Z,19.50
2019-05-29T17:04:42.680Z,19.11
2019-05-29T17:07:10.353Z,19.30
2019-05-29T17:09:38.129Z,19.59
2019-05-29T17:12:05.455Z,19.79
2019-05-29T17:14:32.973Z,19.42
2019-05-29T17:17:00.299Z,19.39
2019-05-29T17:19:27.770Z,19.56
2019-05-29T17:21:55.210Z,19.39
2019-05-29T17:24:22.981Z,19.36
2019-05-29T17:26:50.319Z,19.68
2019-05-29T17:29:18.891Z,19.81
2019-05-29T17:31:46.827Z,19.98
2019-05-29T17:34:14.880Z,19.68
2019-05-29T17:36:42.066Z,19.78
2019-05-29T17:39:09.263Z,19.46
2019-05-29T17:41:36.703Z,19.19
2019-05-29T17:44:04.536Z,19.01
2019-05-29T17:46:32.315Z,19.16
2019-05-29T17:48:59.696Z,19.44
2019-05-29T17:51:27.790Z,19.02
2019-05-29T17:53:55.406Z,18.77
2019-05-29T17:56:32.257Z,19.00
2019-05-29T17:58:52.195Z,19.15
2019-05-29T18:01:19.988Z,19.53
2019-05-29T18:03:47.239Z,19.65
2019-05-29T18:06:16.293Z,19.42
2019-05-29T18:08:44.410Z,19.53
2019-05-29T18:11:11.961Z,19.54
2019-05-29T18:13:39.396Z,19.54
2019-05-29T18:16:07.615Z,19.44
2019-05-29T18:18:35.442Z,19.22
2019-05-29T18:21:03.212Z,19.52
2019-05-29T18:23:30.609Z,19.50
2019-05-29T18:25:58.025Z,19.49
2019-05-29T18:28:26.126Z,19.49
2019-05-29T18:30:53.759Z,19.38
2019-05-29T18:33:22.823Z,19.24
2019-05-29T18:35:50.272Z,19.15
2019-05-29T18:38:17.687Z,19.18
2019-05-29T18:40:45.036Z,19.24
2019-05-29T18:43:12.501Z,19.13
2019-05-29T18:45:39.853Z,18.98
2019-05-29T18:48:07.171Z,18.92
2019-05-29T18:50:34.200Z,18.81
2019-05-29T18:53:01.627Z,18.78
2019-05-29T18:55:29.013Z,18.87
2019-05-29T18:57:56.135Z,18.77
2019-05-29T19:00:25.405Z,18.30
2019-05-29T19:02:52.861Z,18.31
2019-05-29T19:05:21.525Z,18.31
2019-05-29T19:07:48.979Z,18.31
2019-05-29T19:10:16.692Z,18.15
2019-05-29T19:12:44.408Z,18.13
2019-05-29T19:15:12.286Z,18.03
2019-05-29T19:17:39.772Z,17.97
2019-05-29T19:20:07.817Z,17.84
2019-05-29T19:22:35.220Z,17.73
2019-05-29T19:25:02.222Z,17.67
2019-05-29T19:27:39.239Z,17.71
2019-05-29T19:29:59.421Z,17.46
2019-05-29T19:32:27.320Z,17.42
2019-05-29T19:34:54.911Z,17.29
2019-05-29T19:37:23.676Z,17.11
2019-05-29T19:39:59.889Z,17.20
2019-05-29T19:42:28.131Z,17.18
2019-05-29T19:45:24.729Z,17.10
2019-05-29T19:47:54.189Z,17.06
2019-05-29T19:50:22.289Z,16.97
2019-05-29T19:52:57.555Z,16.88
2019-05-29T19:55:34.900Z,16.81
2019-05-29T19:57:59.881Z,16.71
2019-05-29T20:00:28.068Z,16.67
2019-05-29T20:02:55.827Z,16.55
2019-05-29T20:05:23.643Z,16.50
2019-05-29T20:07:51.108Z,16.55
2019-05-29T20:10:18.422Z,16.37
2019-05-29T20:12:45.837Z,16.33
2019-05-29T20:15:14.875Z,16.18
2019-05-29T20:17:42.181Z,16.10
2019-05-29T20:20:09.539Z,16.04
2019-05-29T20:22:36.995Z,15.98
2019-05-29T20:25:05.069Z,15.83
2019-05-29T20:27:32.380Z,15.80
2019-05-29T20:30:00.207Z,15.72
2019-05-29T20:32:27.631Z,15.57
2019-05-29T20:34:54.712Z,15.59
2019-05-29T20:37:22.800Z,15.51
2019-05-29T20:39:49.874Z,15.62
2019-05-29T20:42:17.177Z,15.63
2019-05-29T20:44:44.541Z,15.37
2019-05-29T20:47:12.250Z,15.40
2019-05-29T20:49:40.100Z,15.31
2019-05-29T20:52:07.330Z,15.30
2019-05-29T20:54:35.593Z,15.23
2019-05-29T20:57:09.795Z,15.27
2019-05-29T20:59:38.151Z,15.05
2019-05-29T21:02:06.012Z,15.25
2019-05-29T21:04:34.846Z,15.04
2019-05-29T21:07:02.625Z,15.13
2019-05-29T21:09:30.354Z,14.95
2019-05-29T21:11:58.663Z,14.84
2019-05-29T21:14:27.094Z,14.79
2019-05-29T21:16:54.483Z,14.81
2019-05-29T21:19:22.175Z,14.80
2019-05-29T21:21:49.880Z,14.52
2019-05-29T21:24:17.293Z,14.60
2019-05-29T21:26:45.255Z,14.79
2019-05-29T21:29:12.643Z,14.80
2019-05-29T21:31:41.646Z,14.63
2019-05-29T21:34:09.570Z,14.60
2019-05-29T21:36:37.957Z,14.75
2019-05-29T21:39:08.440Z,14.54
2019-05-29T21:41:36.345Z,14.67
2019-05-29T21:44:03.573Z,14.47
2019-05-29T21:46:30.990Z,14.45
2019-05-29T21:48:59.059Z,14.41
2019-05-29T21:51:27.143Z,14.34
2019-05-29T21:53:54.159Z,14.38
2019-05-29T21:56:21.597Z,14.30
2019-05-29T21:59:02.695Z,14.35
2019-05-29T22:01:18.384Z,14.09
2019-05-29T22:03:46.544Z,14.23
2019-05-29T22:06:14.540Z,13.92
2019-05-29T22:08:42.831Z,14.08
2019-05-29T22:11:28.568Z,14.03
2019-05-29T22:13:56.568Z,13.90
2019-05-29T22:16:23.661Z,13.89
2019-05-29T22:18:52.802Z,13.94
2019-05-29T22:21:20.055Z,13.91
2019-05-29T22:23:47.825Z,13.90
2019-05-29T22:26:15.211Z,13.87
2019-05-29T22:28:43.037Z,13.80
2019-05-29T22:31:10.879Z,13.75
2019-05-29T22:33:38.193Z,13.66
2019-05-29T22:36:05.939Z,13.73
2019-05-29T22:38:33.462Z,13.56
2019-05-29T22:41:01.960Z,13.64
2019-05-29T22:43:29.798Z,13.56
2019-05-29T22:45:57.694Z,13.54
2019-05-29T22:48:24.790Z,13.57
2019-05-29T22:50:53.869Z,13.53
2019-05-29T22:53:21.489Z,13.60
2019-05-29T22:55:48.842Z,13.41
2019-05-29T22:58:16.611Z,13.34
2019-05-29T23:00:44.359Z,13.49
2019-05-29T23:03:12.100Z,13.32
2019-05-29T23:05:39.958Z,13.31
2019-05-29T23:08:06.952Z,13.19
2019-05-29T23:10:34.337Z,13.28
2019-05-29T23:13:05.498Z,13.29
2019-05-29T23:15:30.712Z,13.20
2019-05-29T23:17:58.841Z,13.14
2019-05-29T23:20:27.109Z,12.99
2019-05-29T23:22:54.969Z,12.94
2019-05-29T23:25:22.504Z,13.01
2019-05-29T23:27:49.992Z,13.02
2019-05-29T23:30:17.033Z,12.85
2019-05-29T23:32:44.735Z,12.93
2019-05-29T23:35:12.160Z,12.62
2019-05-29T23:37:39.484Z,12.75
2019-05-29T23:40:07.804Z,12.61
2019-05-29T23:42:35.469Z,12.71
2019-05-29T23:45:03.761Z,12.58
2019-05-29T23:47:31.811Z,12.67
2019-05-29T23:50:00.003Z,12.59
2019-05-29T23:52:27.853Z,12.57
2019-05-29T23:54:56.067Z,12.68
2019-05-29T23:57:24.747Z,12.70
